Latest Weather Observations for Carnarvon

IDW60801

Issued at 3:02 pm WST Friday 31 July 2015 (issued every 30 minutes, with the page automatically refreshed every 10 minutes)

About weather observations | Map of weather stations | Latest weather observations for WA | Other Formats
Station Details ID: 006011 Name: CARNARVON AIRPORT Lat: -24.89 Lon: 113.67 Height: 4.0 m
Data from the previous 72 hours. | See also: Recent months at Carnarvon
Date/Time
WST
Temp
°C
App
Temp
°C
Dew
Point
Rel
Hum
%
Delta-T
°C
Wind Press
QNH
hPa
Press
MSL
hPa
Rain
since 9 am
mm
Dir
 
Spd
km/h
Gust
km/h
Spd
kts
Gust
kts
31/03:00pm 21.3 21.1 19.7 91 1.0 WSW 20 30 11 16 1015.2 - 4.4
31/02:56pm 21.3 20.6 19.6 90 1.1 WSW 22 30 12 16 1015.2 - 4.4
31/02:45pm 22.1 21.8 19.6 86 1.6 W 20 32 11 17 1015.2 - 4.2
31/02:30pm 22.3 22.6 20.8 91 1.0 WNW 20 26 11 14 1015.2 - 4.2
31/02:14pm 22.1 22.3 20.6 91 1.0 W 20 26 11 14 1015.3 - 4.2
31/02:00pm 21.1 21.2 20.0 93 0.7 WNW 19 32 10 17 1015.3 - 4.2
31/01:59pm 21.1 21.3 20.2 95 0.6 WNW 19 32 10 17 1015.3 - 4.2
31/01:44pm 21.0 18.4 19.6 92 0.9 W 32 48 17 26 1015.3 - 1.4
31/01:30pm 24.6 23.1 18.6 69 3.8 NW 24 32 13 17 1015.2 - 0.0
31/01:00pm 25.4 23.8 19.2 68 4.0 NW 26 35 14 19 1015.6 - 0.0
31/12:30pm 24.5 22.6 18.5 69 3.8 NW 26 32 14 17 1016.1 - 0.0
31/12:00pm 24.6 23.2 18.9 70 3.6 NW 24 32 13 17 1016.2 1016.2 0.0
31/11:30am 24.3 23.8 19.1 73 3.3 NW 20 28 11 15 1016.6 - 0.0
31/11:00am 23.6 23.1 18.7 74 3.1 NW 19 24 10 13 1017.0 - 0.0
31/10:30am 24.5 24.1 19.0 71 3.5 NNW 19 24 10 13 1017.4 - 0.0
31/10:00am 23.3 24.5 19.9 81 2.2 N 13 19 7 10 1017.4 - 0.0
31/09:30am 22.4 23.5 19.7 85 1.7 N 13 17 7 9 1017.3 - 0.0
31/09:00am 21.0 22.7 19.3 90 1.1 N 9 13 5 7 1017.2 1017.2 0.2
31/08:30am 19.2 21.0 18.7 97 0.3 NNE 7 11 4 6 1017.0 - 0.2
31/08:29am 19.2 21.0 18.7 97 0.3 NNE 7 9 4 5 1017.0 - 0.2
31/08:17am 18.3 19.4 18.0 98 0.2 NNE 9 11 5 6 1016.9 - 0.2
31/08:03am 17.5 18.3 17.2 98 0.2 NNE 9 11 5 6 1016.8 - 0.2
31/08:00am 17.3 18.0 17.0 98 0.2 NNE 9 11 5 6 1016.8 - 0.2
31/07:35am 16.9 17.8 16.6 98 0.2 NNE 7 9 4 5 1016.6 - 0.2
31/07:30am 16.8 17.7 16.5 98 0.2 NNE 7 9 4 5 1016.6 - 0.2
31/07:06am 16.4 16.7 16.1 98 0.2 NNE 9 13 5 7 1016.3 - 0.2
31/07:00am 16.2 16.5 15.9 98 0.2 NNE 9 13 5 7 1016.2 - 0.2
31/06:47am 16.0 15.8 15.7 98 0.2 NNE 11 11 6 6 1016.2 - 0.2
31/06:30am 16.0 16.1 15.5 97 0.3 NNE 9 9 5 5 1016.1 - 0.2
31/06:00am 16.5 16.8 16.0 97 0.3 N 9 9 5 5 1015.8 1015.8 0.2
31/05:30am 16.8 17.8 16.3 97 0.3 N 6 6 3 3 1015.8 - 0.2
31/05:00am 16.4 17.0 15.9 97 0.3 N 7 9 4 5 1015.7 - 0.2
31/04:30am 16.5 17.2 16.0 97 0.3 N 7 7 4 4 1016.0 - 0.2
31/04:15am 16.7 17.6 16.2 97 0.3 NW 6 9 3 5 1016.1 - 0.2
31/04:00am 16.7 18.9 16.4 98 0.2 CALM 0 0 0 0 1016.3 - 0.2
31/03:30am 16.7 18.9 16.4 98 0.2 CALM 0 0 0 0 1016.5 - 0.2
31/03:00am 17.5 20.0 17.2 98 0.2 CALM 0 0 0 0 1016.6 1016.6 0.2
31/02:30am 17.4 19.1 17.1 98 0.2 WSW 4 6 2 3 1016.8 - 0.2
31/02:00am 18.2 19.6 17.7 97 0.3 WSW 7 7 4 4 1017.3 - 0.2
31/01:30am 17.4 19.0 16.9 97 0.3 WSW 4 7 2 4 1017.4 - 0.2
31/01:00am 18.5 20.0 17.5 94 0.6 WSW 6 7 3 4 1017.6 - 0.2
31/12:54am 18.5 19.8 17.5 94 0.6 WSW 7 9 4 5 1017.6 - 0.2
31/12:30am 20.6 22.8 19.7 95 0.6 WSW 7 9 4 5 1017.6 - 0.2
31/12:00am 20.9 23.1 19.6 92 0.8 W 7 7 4 4 1017.9 1017.9 0.2
 
Date/Time
WST
Temp
°C
App
Temp
°C
Dew
Point
Rel
Hum
%
Delta-T
°C
Wind Press
QNH
hPa
Press
MSL
hPa
Rain
since 9 am
mm
Dir
 
Spd
km/h
Gust
km/h
Spd
kts
Gust
kts
30/11:30pm 21.4 23.3 19.8 91 1.0 W 9 11 5 6 1018.3 - 0.2
30/11:00pm 21.7 23.2 19.8 89 1.2 WSW 11 13 6 7 1018.4 - 0.2
30/10:30pm 21.4 22.8 19.5 89 1.2 W 11 15 6 8 1018.5 - 0.2
30/10:00pm 21.1 22.9 19.5 90 1.0 NW 9 11 5 6 1018.4 - 0.2
30/09:30pm 19.6 20.7 18.1 91 0.9 NNW 9 9 5 5 1018.4 - 0.2
30/09:00pm 19.6 21.2 17.8 89 1.1 NW 6 7 3 4 1018.5 1018.5 0.2
30/08:30pm 20.4 21.8 18.6 89 1.1 NW 9 11 5 6 1018.4 - 0.2
30/08:00pm 20.2 21.5 18.4 89 1.1 NW 9 9 5 5 1018.1 - 0.2
30/07:30pm 21.3 22.7 18.7 85 1.6 WNW 9 11 5 6 1018.1 - 0.2
30/07:00pm 21.7 22.7 18.7 83 1.9 WNW 11 15 6 8 1017.9 - 0.2
30/06:30pm 22.1 23.1 18.6 80 2.2 W 11 15 6 8 1017.7 - 0.2
30/06:00pm 22.6 23.7 18.8 79 2.4 W 11 15 6 8 1017.6 1017.6 0.2
30/05:30pm 23.6 24.3 18.9 75 3.0 W 13 20 7 11 1017.6 - 0.2
30/05:00pm 23.8 24.0 19.4 76 2.8 WSW 17 22 9 12 1017.6 - 0.2
30/04:30pm 23.9 23.6 19.5 76 2.8 WSW 20 26 11 14 1017.5 - 0.2
30/04:00pm 24.0 23.3 19.6 76 2.8 W 22 32 12 17 1017.4 - 0.2
30/03:30pm 24.4 23.7 19.4 73 3.2 W 22 32 12 17 1017.3 - 0.2
30/03:00pm 25.7 24.9 18.4 64 4.6 WSW 20 24 11 13 1017.2 1017.2 0.2
30/02:30pm 28.4 27.3 16.3 47 7.5 W 17 22 9 12 1017.3 - 0.2
30/02:00pm 28.8 27.4 16.6 47 7.6 WNW 19 24 10 13 1017.4 - 0.2
30/01:30pm 29.0 27.7 16.9 48 7.6 WNW 19 22 10 12 1017.5 - 0.2
30/01:00pm 30.7 27.7 12.1 32 10.9 N 19 26 10 14 1017.9 - 0.2
30/12:30pm 29.9 27.0 12.3 33 10.3 N 19 24 10 13 1018.3 - 0.2
30/12:00pm 29.1 26.8 14.7 41 8.7 NNE 20 28 11 15 1018.7 1018.7 0.2
30/11:30am 28.0 25.8 14.9 44 7.9 NNE 20 28 11 15 1019.2 - 0.2
30/11:00am 26.7 25.2 16.3 53 6.4 NNE 19 24 10 13 1019.6 - 0.2
30/10:30am 25.2 23.8 16.9 60 5.1 NNE 20 26 11 14 1019.8 - 0.2
30/10:00am 23.5 22.7 17.9 71 3.5 NE 19 26 10 14 1020.0 - 0.2
30/09:30am 21.6 20.8 18.1 80 2.2 NE 19 24 10 13 1020.1 - 0.2
30/09:00am 20.1 20.1 18.2 89 1.2 NE 15 20 8 11 1020.0 1020.0 0.2
30/08:30am 18.8 19.7 18.3 97 0.3 ENE 11 17 6 9 1019.8 - 0.2
30/08:20am 18.8 20.1 18.5 98 0.2 ENE 9 13 5 7 1019.8 - 0.2
30/08:00am 18.1 19.7 17.9 99 0.1 ESE 6 7 3 4 1019.7 - 0.2
30/07:59am 17.9 19.5 17.9 100 0.0 ESE 6 7 3 4 1019.7 - 0.2
30/07:30am 17.4 18.6 17.4 100 0.0 ENE 7 9 4 5 1019.3 - 0.2
30/07:00am 17.7 18.6 17.5 99 0.1 E 9 13 5 7 1019.1 - 0.2
30/06:30am 18.0 18.6 17.8 99 0.1 E 11 13 6 7 1019.0 - 0.2
30/06:00am 17.4 17.8 17.2 99 0.1 ESE 11 13 6 7 1018.9 1018.9 0.2
30/05:30am 17.4 18.2 17.2 99 0.1 ESE 9 11 5 6 1018.9 - 0.2
30/05:00am 17.0 17.2 16.8 99 0.1 ESE 11 13 6 7 1018.9 - 0.2
30/04:50am 17.0 17.2 16.8 99 0.1 ESE 11 13 6 7 1018.9 - 0.2
30/04:46am 17.0 17.2 16.8 99 0.1 ESE 11 13 6 7 1019.0 - 0.2
30/04:40am 16.9 17.5 16.7 99 0.1 ESE 9 11 5 6 1018.9 - 0.2
30/04:35am 16.8 17.3 16.6 99 0.1 ESE 9 11 5 6 1018.9 - 0.2
30/04:30am 16.8 17.3 16.6 99 0.1 ESE 9 11 5 6 1018.9 - 0.2
30/04:00am 17.1 17.4 16.9 99 0.1 ESE 11 13 6 7 1019.0 - 0.2
30/03:30am 16.9 17.5 16.7 99 0.1 ESE 9 11 5 6 1019.2 - 0.2
30/03:00am 16.8 17.3 16.6 99 0.1 ESE 9 11 5 6 1019.3 1019.3 0.2
30/02:30am 16.2 16.5 16.0 99 0.1 ESE 9 11 5 6 1019.4 - 0.2
30/02:00am 16.3 17.0 16.0 98 0.2 ESE 7 9 4 5 1019.6 - 0.2
30/01:30am 16.3 16.5 15.8 97 0.3 SE 9 11 5 6 1019.8 - 0.2
30/01:27am 16.3 17.0 16.0 98 0.2 SE 7 9 4 5 1019.8 - 0.2
30/01:00am 17.1 17.7 16.8 98 0.2 SE 9 11 5 6 1020.0 - 0.2
30/12:50am 17.1 17.6 16.6 97 0.3 SE 9 9 5 5 1020.0 - 0.2
30/12:30am 17.6 18.6 16.9 96 0.4 SSE 7 9 4 5 1020.0 - 0.2
30/12:00am 17.3 17.8 16.6 96 0.4 SSE 9 11 5 6 1020.1 1020.1 0.2
 
Date/Time
WST
Temp
°C
App
Temp
°C
Dew
Point
Rel
Hum
%
Delta-T
°C
Wind Press
QNH
hPa
Press
MSL
hPa
Rain
since 9 am
mm
Dir
 
Spd
km/h
Gust
km/h
Spd
kts
Gust
kts
29/11:32pm 17.5 17.7 16.8 96 0.4 SSE 11 11 6 6 1020.3 - 0.2
29/11:30pm 17.7 18.0 17.0 96 0.4 SSE 11 11 6 6 1020.3 - 0.2
29/11:00pm 17.7 18.9 16.9 95 0.5 S 6 7 3 4 1020.2 - 0.2
29/10:45pm 19.6 21.8 19.1 97 0.3 SSW 6 6 3 3 1020.2 - 0.2
29/10:30pm 19.6 22.1 19.0 96 0.4 SSW 4 7 2 4 1020.2 - 0.2
29/10:00pm 20.1 21.8 19.3 95 0.5 SW 9 11 5 6 1020.3 - 0.2
29/09:30pm 20.5 21.9 19.6 95 0.6 SW 11 13 6 7 1020.4 - 0.2
29/09:00pm 20.6 21.7 19.7 95 0.6 SW 13 15 7 8 1020.4 1020.4 0.2
29/08:30pm 20.4 21.7 19.4 94 0.6 SW 11 13 6 7 1020.3 - 0.2
29/08:00pm 20.7 22.1 19.6 93 0.7 WSW 11 11 6 6 1020.1 - 0.2
29/07:30pm 21.0 23.0 19.9 93 0.7 WSW 9 13 5 7 1019.9 - 0.2
29/07:00pm 21.3 22.9 19.9 92 0.9 W 11 13 6 7 1019.6 - 0.2
29/06:30pm 21.6 23.2 20.0 91 1.0 W 11 15 6 8 1019.4 - 0.2
29/06:00pm 22.0 23.2 20.0 88 1.3 W 13 17 7 9 1019.1 1019.1 0.2
29/05:30pm 22.8 23.9 19.7 83 2.0 W 13 19 7 10 1018.8 - 0.2
29/05:00pm 23.2 23.0 19.4 79 2.4 WSW 19 22 10 12 1018.7 - 0.2
29/04:30pm 23.6 23.4 19.4 77 2.7 WSW 19 24 10 13 1018.5 - 0.2
29/04:00pm 24.7 25.1 18.9 70 3.7 WSW 15 19 8 10 1018.5 - 0.2
29/03:30pm 24.7 25.4 18.9 70 3.7 WSW 13 19 7 10 1018.5 - 0.2
29/03:00pm 25.4 25.9 18.4 65 4.4 W 13 17 7 9 1018.4 1018.4 0.2
29/02:30pm 26.2 26.9 18.8 63 4.7 W 13 20 7 11 1018.4 - 0.2
29/02:00pm 25.8 25.9 19.1 66 4.3 WSW 17 22 9 12 1018.5 - 0.2
29/01:30pm 26.3 27.3 18.6 62 4.9 WNW 11 15 6 8 1019.0 - 0.2
29/01:00pm 25.6 26.9 18.5 65 4.5 W 9 13 5 7 1019.6 - 0.2
29/12:30pm 25.3 26.4 19.7 71 3.6 WNW 13 19 7 10 1020.2 - 0.2
29/12:02pm 24.2 26.4 20.3 79 2.5 WNW 9 17 5 9 1020.6 - 0.2
29/12:00pm 24.4 26.6 20.4 78 2.6 WNW 9 17 5 9 1020.6 1020.6 0.2
29/11:30am 23.7 26.5 20.8 84 1.9 WNW 7 13 4 7 1020.9 - 0.0
29/11:24am 23.2 25.8 20.4 84 1.8 NW 7 13 4 7 1020.9 - 0.0
29/11:00am 22.9 25.2 20.7 87 1.4 N 9 13 5 7 1021.1 - 0.0
29/10:42am 22.4 24.7 20.7 90 1.1 N 9 13 5 7 1021.3 - 0.0
29/10:30am 21.7 24.1 20.8 95 0.6 N 9 13 5 7 1021.2 - 0.0
29/10:21am 21.1 23.6 21.1 100 0.0 N 9 11 5 6 1021.2 - 0.0
29/10:00am 20.3 22.8 20.3 100 0.0 N 7 9 4 5 1021.4 - 0.0
29/09:30am 19.7 21.9 19.7 100 0.0 NNE 7 9 4 5 1021.4 - 0.0
29/09:00am 19.3 20.9 19.1 99 0.1 NNE 9 13 5 7 1021.2 1021.2 0.0
29/08:30am 18.2 19.0 18.2 100 0.0 NNE 11 13 6 7 1020.9 - 0.0
29/08:00am 17.6 18.4 17.4 99 0.1 NNE 9 11 5 6 1020.6 - 0.0
29/07:30am 16.8 17.4 16.8 100 0.0 NNE 9 11 5 6 1020.3 - 0.0
29/07:00am 16.8 17.4 16.8 100 0.0 NNE 9 11 5 6 1019.9 - 0.0
29/06:30am 16.8 17.4 16.8 100 0.0 NNE 9 13 5 7 1019.6 - 0.0
29/06:00am 17.0 17.7 17.0 100 0.0 NNE 9 13 5 7 1019.3 1019.3 0.0
29/05:30am 17.2 19.7 17.2 100 0.0 CALM 0 0 0 0 1019.3 - 0.0
29/05:00am 17.6 18.9 17.6 100 0.0 NNE 7 9 4 5 1019.1 - 0.0
29/04:30am 18.3 19.5 18.3 100 0.0 N 9 11 5 6 1019.2 - 0.0
29/04:00am 18.3 19.4 18.1 99 0.1 N 9 11 5 6 1019.3 - 0.0
29/03:30am 17.8 19.1 17.6 99 0.1 NNE 7 9 4 5 1019.4 - 0.0
29/03:00am 17.1 18.1 16.8 98 0.2 N 7 9 4 5 1019.5 1019.5 0.0
29/02:30am 17.2 17.8 16.9 98 0.2 N 9 9 5 5 1019.5 - 0.0
29/02:00am 17.1 18.1 16.8 98 0.2 N 7 9 4 5 1019.7 - 0.0
29/01:47am 17.0 17.6 16.7 98 0.2 N 9 9 5 5 1019.8 - 0.0
29/01:30am 17.1 18.0 16.6 97 0.3 N 7 9 4 5 1019.9 - 0.0
29/01:00am 17.8 19.2 17.3 97 0.3 N 6 9 3 5 1019.9 - 0.0
29/12:57am 17.8 19.1 17.5 98 0.2 N 7 9 4 5 1019.9 - 0.0
29/12:52am 17.8 18.7 17.5 98 0.2 N 9 11 5 6 1019.9 - 0.0
29/12:38am 17.7 18.5 17.2 97 0.3 N 9 9 5 5 1019.9 - 0.0
29/12:30am 17.6 18.7 17.1 97 0.3 N 7 9 4 5 1020.0 - 0.0
29/12:25am 17.5 18.3 17.2 98 0.2 N 9 11 5 6 1020.0 - 0.0
29/12:00am 17.3 18.5 16.8 97 0.3 NNW 6 9 3 5 1020.2 1020.2 0.0
 
Date/Time
WST
Temp
°C
App
Temp
°C
Dew
Point
Rel
Hum
%
Delta-T
°C
Wind Press
QNH
hPa
Press
MSL
hPa
Rain
since 9 am
mm
Dir
 
Spd
km/h
Gust
km/h
Spd
kts
Gust
kts
28/11:54pm 17.5 19.8 16.7 95 0.5 CALM 0 0 0 0 1020.3 - 0.0
28/11:30pm 18.8 21.5 17.8 94 0.6 CALM 0 2 0 1 1020.6 - 0.0
28/11:00pm 19.7 21.8 18.9 95 0.5 NW 6 7 3 4 1020.7 - 0.0
28/10:30pm 19.7 20.5 19.1 96 0.4 NNW 13 17 7 9 1020.6 - 0.0
28/10:00pm 20.0 20.9 19.2 95 0.5 NNW 13 17 7 9 1020.6 - 0.0
28/09:30pm 20.1 20.9 19.1 94 0.6 NNW 13 17 7 9 1020.4 - 0.0
28/09:00pm 20.3 20.7 19.0 92 0.8 N 15 19 8 10 1020.4 1020.4 0.0
28/08:30pm 20.5 20.9 18.9 90 1.0 N 15 19 8 10 1020.3 - 0.0
28/08:00pm 20.8 21.1 18.7 88 1.3 N 15 20 8 11 1020.1 - 0.0
28/07:30pm 20.7 21.2 18.3 86 1.5 N 13 17 7 9 1020.0 - 0.0
28/07:00pm 21.1 20.9 18.4 84 1.7 NNW 17 20 9 11 1019.9 - 0.0
28/06:30pm 21.6 21.2 18.9 84 1.7 NNW 19 24 10 13 1019.9 - 0.0
28/06:00pm 22.2 21.2 18.9 81 2.1 NNW 22 30 12 16 1019.4 1019.4 0.0
28/05:30pm 23.0 20.9 18.9 78 2.6 NNW 28 35 15 19 1019.3 - 0.0
28/05:00pm 23.8 22.6 19.2 75 2.9 NW 24 33 13 18 1019.3 - 0.0
28/04:30pm 24.2 22.0 18.8 72 3.4 NW 28 35 15 19 1019.3 - 0.0
28/04:00pm 24.8 22.7 19.0 70 3.7 NW 28 35 15 19 1019.1 - 0.0
28/03:30pm 24.9 22.7 18.6 68 4.0 NW 28 35 15 19 1019.1 - 0.0

Other Formats:

Comma delimited format used in spreadsheet applications
http://www.bom.gov.au/fwo/IDW60801/IDW60801.94300.axf

JavaScript Object Notation format (JSON) in row-major order
http://www.bom.gov.au/fwo/IDW60801/IDW60801.94300.json